sensor_id;sensor_type;location;lat;lon;timestamp;P1;durP1;ratioP1;P2;durP2;ratioP2
15404;SDS011;7801;48.124;11.590;2024-02-28T00:00:40;6.10;;;5.60;;
15404;SDS011;7801;48.124;11.590;2024-02-28T00:03:09;6.67;;;6.07;;
15404;SDS011;7801;48.124;11.590;2024-02-28T00:05:39;7.07;;;5.93;;
15404;SDS011;7801;48.124;11.590;2024-02-28T00:08:07;4.90;;;4.60;;
15404;SDS011;7801;48.124;11.590;2024-02-28T00:10:33;5.83;;;5.43;;
15404;SDS011;7801;48.124;11.590;2024-02-28T00:13:00;8.77;;;6.50;;
15404;SDS011;7801;48.124;11.590;2024-02-28T00:15:27;8.93;;;6.93;;
15404;SDS011;7801;48.124;11.590;2024-02-28T00:17:52;6.67;;;6.17;;
15404;SDS011;7801;48.124;11.590;2024-02-28T00:20:20;7.23;;;5.83;;
15404;SDS011;7801;48.124;11.590;2024-02-28T00:22:46;5.63;;;5.33;;
15404;SDS011;7801;48.124;11.590;2024-02-28T00:25:13;7.03;;;6.40;;
15404;SDS011;7801;48.124;11.590;2024-02-28T00:27:42;10.17;;;6.53;;
15404;SDS011;7801;48.124;11.590;2024-02-28T00:30:07;7.17;;;6.57;;
15404;SDS011;7801;48.124;11.590;2024-02-28T00:32:36;7.03;;;6.37;;
15404;SDS011;7801;48.124;11.590;2024-02-28T00:35:01;7.20;;;6.57;;
15404;SDS011;7801;48.124;11.590;2024-02-28T00:37:27;6.13;;;5.73;;
15404;SDS011;7801;48.124;11.590;2024-02-28T00:39:54;6.73;;;6.20;;
15404;SDS011;7801;48.124;11.590;2024-02-28T00:42:19;7.03;;;6.37;;
15404;SDS011;7801;48.124;11.590;2024-02-28T00:44:45;6.07;;;5.57;;
15404;SDS011;7801;48.124;11.590;2024-02-28T00:47:11;5.27;;;5.00;;
15404;SDS011;7801;48.124;11.590;2024-02-28T00:49:39;7.23;;;6.60;;
15404;SDS011;7801;48.124;11.590;2024-02-28T00:52:08;6.07;;;5.57;;
15404;SDS011;7801;48.124;11.590;2024-02-28T00:54:37;7.80;;;5.43;;
15404;SDS011;7801;48.124;11.590;2024-02-28T00:57:02;6.53;;;5.93;;
15404;SDS011;7801;48.124;11.590;2024-02-28T00:59:29;7.00;;;5.57;;
15404;SDS011;7801;48.124;11.590;2024-02-28T01:01:55;7.07;;;5.40;;
15404;SDS011;7801;48.124;11.590;2024-02-28T01:04:22;6.37;;;5.77;;
15404;SDS011;7801;48.124;11.590;2024-02-28T01:06:47;6.70;;;5.67;;
15404;SDS011;7801;48.124;11.590;2024-02-28T01:09:13;6.00;;;5.50;;
15404;SDS011;7801;48.124;11.590;2024-02-28T01:11:40;6.70;;;5.97;;
15404;SDS011;7801;48.124;11.590;2024-02-28T01:14:07;12.20;;;6.37;;
15404;SDS011;7801;48.124;11.590;2024-02-28T01:16:35;5.57;;;5.20;;
15404;SDS011;7801;48.124;11.590;2024-02-28T01:19:02;6.93;;;6.27;;
15404;SDS011;7801;48.124;11.590;2024-02-28T01:21:28;7.53;;;7.00;;
15404;SDS011;7801;48.124;11.590;2024-02-28T01:23:55;6.50;;;6.00;;
15404;SDS011;7801;48.124;11.590;2024-02-28T01:26:20;5.80;;;5.50;;
15404;SDS011;7801;48.124;11.590;2024-02-28T01:28:48;7.80;;;6.27;;
15404;SDS011;7801;48.124;11.590;2024-02-28T01:31:15;6.40;;;5.90;;
15404;SDS011;7801;48.124;11.590;2024-02-28T01:33:41;5.73;;;5.23;;
15404;SDS011;7801;48.124;11.590;2024-02-28T01:36:06;5.70;;;5.30;;
15404;SDS011;7801;48.124;11.590;2024-02-28T01:38:33;7.97;;;7.37;;
15404;SDS011;7801;48.124;11.590;2024-02-28T01:41:01;6.23;;;5.73;;
15404;SDS011;7801;48.124;11.590;2024-02-28T01:43:28;7.93;;;6.00;;
15404;SDS011;7801;48.124;11.590;2024-02-28T01:45:53;9.03;;;6.30;;
15404;SDS011;7801;48.124;11.590;2024-02-28T01:48:20;8.07;;;7.30;;
15404;SDS011;7801;48.124;11.590;2024-02-28T01:50:48;5.80;;;5.40;;
15404;SDS011;7801;48.124;11.590;2024-02-28T01:53:15;5.93;;;5.33;;
15404;SDS011;7801;48.124;11.590;2024-02-28T01:55:42;7.70;;;6.10;;
15404;SDS011;7801;48.124;11.590;2024-02-28T01:58:10;8.50;;;6.80;;
15404;SDS011;7801;48.124;11.590;2024-02-28T02:00:43;6.50;;;6.00;;
15404;SDS011;7801;48.124;11.590;2024-02-28T02:03:09;6.80;;;6.30;;
15404;SDS011;7801;48.124;11.590;2024-02-28T02:05:36;5.97;;;5.57;;
15404;SDS011;7801;48.124;11.590;2024-02-28T02:08:01;6.03;;;5.53;;
15404;SDS011;7801;48.124;11.590;2024-02-28T02:10:27;8.80;;;5.97;;
15404;SDS011;7801;48.124;11.590;2024-02-28T02:12:53;6.37;;;5.77;;
15404;SDS011;7801;48.124;11.590;2024-02-28T02:15:19;6.87;;;6.37;;
15404;SDS011;7801;48.124;11.590;2024-02-28T02:17:44;7.40;;;6.30;;
15404;SDS011;7801;48.124;11.590;2024-02-28T02:20:13;6.53;;;5.63;;
15404;SDS011;7801;48.124;11.590;2024-02-28T02:22:41;5.77;;;5.37;;
15404;SDS011;7801;48.124;11.590;2024-02-28T02:25:07;6.27;;;5.67;;
15404;SDS011;7801;48.124;11.590;2024-02-28T02:27:34;9.30;;;7.07;;
15404;SDS011;7801;48.124;11.590;2024-02-28T02:30:01;8.17;;;6.77;;
15404;SDS011;7801;48.124;11.590;2024-02-28T02:32:26;8.47;;;7.77;;
15404;SDS011;7801;48.124;11.590;2024-02-28T02:34:53;9.20;;;6.40;;
15404;SDS011;7801;48.124;11.590;2024-02-28T02:37:19;8.50;;;7.73;;
15404;SDS011;7801;48.124;11.590;2024-02-28T02:39:44;6.13;;;5.73;;
15404;SDS011;7801;48.124;11.590;2024-02-28T02:42:11;8.27;;;7.43;;
15404;SDS011;7801;48.124;11.590;2024-02-28T02:44:41;8.07;;;7.37;;
15404;SDS011;7801;48.124;11.590;2024-02-28T02:47:07;7.63;;;6.93;;
15404;SDS011;7801;48.124;11.590;2024-02-28T02:49:36;7.17;;;6.50;;
15404;SDS011;7801;48.124;11.590;2024-02-28T02:52:03;6.93;;;6.43;;
15404;SDS011;7801;48.124;11.590;2024-02-28T02:54:29;8.57;;;7.80;;
15404;SDS011;7801;48.124;11.590;2024-02-28T02:56:55;8.87;;;8.00;;
15404;SDS011;7801;48.124;11.590;2024-02-28T02:59:22;8.70;;;7.93;;
15404;SDS011;7801;48.124;11.590;2024-02-28T03:01:48;6.67;;;6.17;;
15404;SDS011;7801;48.124;11.590;2024-02-28T03:04:15;7.53;;;6.90;;
15404;SDS011;7801;48.124;11.590;2024-02-28T03:06:43;8.27;;;7.57;;
15404;SDS011;7801;48.124;11.590;2024-02-28T03:09:08;7.83;;;7.10;;
15404;SDS011;7801;48.124;11.590;2024-02-28T03:11:36;7.77;;;7.07;;
15404;SDS011;7801;48.124;11.590;2024-02-28T03:14:02;8.33;;;7.73;;
15404;SDS011;7801;48.124;11.590;2024-02-28T03:16:28;7.33;;;6.80;;
15404;SDS011;7801;48.124;11.590;2024-02-28T03:18:56;9.90;;;8.17;;
15404;SDS011;7801;48.124;11.590;2024-02-28T03:21:26;9.53;;;8.73;;
15404;SDS011;7801;48.124;11.590;2024-02-28T03:23:53;8.47;;;7.23;;
15404;SDS011;7801;48.124;11.590;2024-02-28T03:26:20;11.73;;;8.17;;
15404;SDS011;7801;48.124;11.590;2024-02-28T03:28:46;5.83;;;5.53;;
15404;SDS011;7801;48.124;11.590;2024-02-28T03:31:12;7.63;;;7.10;;
15404;SDS011;7801;48.124;11.590;2024-02-28T03:33:39;9.30;;;7.73;;
15404;SDS011;7801;48.124;11.590;2024-02-28T03:36:05;8.03;;;7.43;;
15404;SDS011;7801;48.124;11.590;2024-02-28T03:38:32;15.20;;;9.67;;
15404;SDS011;7801;48.124;11.590;2024-02-28T03:40:59;9.30;;;8.50;;
15404;SDS011;7801;48.124;11.590;2024-02-28T03:43:24;8.57;;;7.70;;
15404;SDS011;7801;48.124;11.590;2024-02-28T03:45:51;9.10;;;8.30;;
15404;SDS011;7801;48.124;11.590;2024-02-28T03:48:17;8.77;;;8.10;;
15404;SDS011;7801;48.124;11.590;2024-02-28T03:50:46;8.13;;;7.43;;
15404;SDS011;7801;48.124;11.590;2024-02-28T03:53:13;8.17;;;7.43;;
15404;SDS011;7801;48.124;11.590;2024-02-28T03:55:38;9.70;;;8.77;;
15404;SDS011;7801;48.124;11.590;2024-02-28T03:58:05;8.83;;;8.03;;
15404;SDS011;7801;48.124;11.590;2024-02-28T04:00:33;8.03;;;7.23;;
15404;SDS011;7801;48.124;11.590;2024-02-28T04:03:02;7.13;;;6.43;;
15404;SDS011;7801;48.124;11.590;2024-02-28T04:05:29;8.40;;;7.67;;
15404;SDS011;7801;48.124;11.590;2024-02-28T04:07:56;8.83;;;7.57;;
15404;SDS011;7801;48.124;11.590;2024-02-28T04:10:22;7.53;;;6.83;;
15404;SDS011;7801;48.124;11.590;2024-02-28T04:12:48;10.70;;;8.90;;
15404;SDS011;7801;48.124;11.590;2024-02-28T04:15:15;7.70;;;6.87;;
15404;SDS011;7801;48.124;11.590;2024-02-28T04:17:41;8.70;;;7.37;;
15404;SDS011;7801;48.124;11.590;2024-02-28T04:20:13;7.80;;;7.20;;
15404;SDS011;7801;48.124;11.590;2024-02-28T04:22:39;7.47;;;6.93;;
15404;SDS011;7801;48.124;11.590;2024-02-28T04:25:05;8.40;;;7.57;;
15404;SDS011;7801;48.124;11.590;2024-02-28T04:27:33;10.17;;;9.37;;
15404;SDS011;7801;48.124;11.590;2024-02-28T04:29:58;10.77;;;9.67;;
15404;SDS011;7801;48.124;11.590;2024-02-28T04:32:25;8.70;;;8.03;;
15404;SDS011;7801;48.124;11.590;2024-02-28T04:34:51;12.57;;;9.63;;
15404;SDS011;7801;48.124;11.590;2024-02-28T04:37:20;9.37;;;8.40;;
15404;SDS011;7801;48.124;11.590;2024-02-28T04:39:50;8.47;;;7.53;;
15404;SDS011;7801;48.124;11.590;2024-02-28T04:42:16;8.90;;;8.20;;
15404;SDS011;7801;48.124;11.590;2024-02-28T04:44:44;8.93;;;8.03;;
15404;SDS011;7801;48.124;11.590;2024-02-28T04:47:11;9.50;;;8.60;;
15404;SDS011;7801;48.124;11.590;2024-02-28T04:49:37;7.20;;;6.73;;
15404;SDS011;7801;48.124;11.590;2024-02-28T04:52:04;10.53;;;9.63;;
15404;SDS011;7801;48.124;11.590;2024-02-28T04:54:31;7.27;;;6.77;;
15404;SDS011;7801;48.124;11.590;2024-02-28T04:56:56;8.53;;;7.63;;
15404;SDS011;7801;48.124;11.590;2024-02-28T04:59:23;10.73;;;7.63;;
15404;SDS011;7801;48.124;11.590;2024-02-28T05:01:54;9.40;;;7.93;;
15404;SDS011;7801;48.124;11.590;2024-02-28T05:04:21;8.93;;;8.13;;
15404;SDS011;7801;48.124;11.590;2024-02-28T05:06:47;8.57;;;7.87;;
15404;SDS011;7801;48.124;11.590;2024-02-28T05:09:12;8.43;;;7.83;;
15404;SDS011;7801;48.124;11.590;2024-02-28T05:11:37;10.80;;;9.80;;
15404;SDS011;7801;48.124;11.590;2024-02-28T05:14:03;8.47;;;7.70;;
15404;SDS011;7801;48.124;11.590;2024-02-28T05:16:30;8.37;;;7.63;;
15404;SDS011;7801;48.124;11.590;2024-02-28T05:18:58;8.50;;;7.83;;
15404;SDS011;7801;48.124;11.590;2024-02-28T05:21:23;9.30;;;8.53;;
15404;SDS011;7801;48.124;11.590;2024-02-28T05:23:51;7.13;;;6.60;;
15404;SDS011;7801;48.124;11.590;2024-02-28T05:26:16;9.83;;;7.67;;
15404;SDS011;7801;48.124;11.590;2024-02-28T05:28:42;11.13;;;9.30;;
15404;SDS011;7801;48.124;11.590;2024-02-28T05:31:21;9.40;;;8.53;;
15404;SDS011;7801;48.124;11.590;2024-02-28T05:33:53;12.43;;;9.67;;
15404;SDS011;7801;48.124;11.590;2024-02-28T05:36:23;9.53;;;7.93;;
15404;SDS011;7801;48.124;11.590;2024-02-28T05:38:49;7.43;;;6.90;;
15404;SDS011;7801;48.124;11.590;2024-02-28T05:41:17;7.93;;;7.33;;
15404;SDS011;7801;48.124;11.590;2024-02-28T05:43:46;10.70;;;9.60;;
15404;SDS011;7801;48.124;11.590;2024-02-28T05:46:13;8.20;;;7.60;;
15404;SDS011;7801;48.124;11.590;2024-02-28T05:48:41;10.97;;;8.30;;
15404;SDS011;7801;48.124;11.590;2024-02-28T05:51:08;10.30;;;9.30;;
15404;SDS011;7801;48.124;11.590;2024-02-28T05:53:35;7.73;;;7.10;;
15404;SDS011;7801;48.124;11.590;2024-02-28T05:56:06;9.87;;;8.97;;
15404;SDS011;7801;48.124;11.590;2024-02-28T05:58:39;11.43;;;8.63;;
15404;SDS011;7801;48.124;11.590;2024-02-28T06:01:05;10.23;;;8.37;;
15404;SDS011;7801;48.124;11.590;2024-02-28T06:03:37;10.97;;;8.03;;
15404;SDS011;7801;48.124;11.590;2024-02-28T06:06:03;8.27;;;7.67;;
15404;SDS011;7801;48.124;11.590;2024-02-28T06:08:32;7.80;;;7.13;;
15404;SDS011;7801;48.124;11.590;2024-02-28T06:11:03;9.53;;;8.20;;
15404;SDS011;7801;48.124;11.590;2024-02-28T06:13:28;9.20;;;8.40;;
15404;SDS011;7801;48.124;11.590;2024-02-28T06:15:54;7.80;;;7.13;;
15404;SDS011;7801;48.124;11.590;2024-02-28T06:18:20;12.20;;;10.03;;
15404;SDS011;7801;48.124;11.590;2024-02-28T06:20:49;9.40;;;8.47;;
15404;SDS011;7801;48.124;11.590;2024-02-28T06:23:16;9.30;;;8.40;;
15404;SDS011;7801;48.124;11.590;2024-02-28T06:25:43;10.03;;;9.33;;
15404;SDS011;7801;48.124;11.590;2024-02-28T06:28:08;10.53;;;9.70;;
15404;SDS011;7801;48.124;11.590;2024-02-28T06:30:36;10.80;;;9.10;;
15404;SDS011;7801;48.124;11.590;2024-02-28T06:33:01;9.93;;;8.93;;
15404;SDS011;7801;48.124;11.590;2024-02-28T06:35:27;9.23;;;8.60;;
15404;SDS011;7801;48.124;11.590;2024-02-28T06:37:54;9.00;;;8.20;;
15404;SDS011;7801;48.124;11.590;2024-02-28T06:40:20;10.23;;;9.10;;
15404;SDS011;7801;48.124;11.590;2024-02-28T06:42:46;14.33;;;10.33;;
15404;SDS011;7801;48.124;11.590;2024-02-28T06:45:13;9.20;;;8.23;;
15404;SDS011;7801;48.124;11.590;2024-02-28T06:47:39;12.17;;;10.93;;
15404;SDS011;7801;48.124;11.590;2024-02-28T06:50:05;16.43;;;10.20;;
15404;SDS011;7801;48.124;11.590;2024-02-28T06:52:31;11.83;;;9.27;;
15404;SDS011;7801;48.124;11.590;2024-02-28T06:55:01;13.33;;;10.67;;
15404;SDS011;7801;48.124;11.590;2024-02-28T06:57:32;10.63;;;9.73;;
15404;SDS011;7801;48.124;11.590;2024-02-28T06:59:59;15.80;;;11.87;;
15404;SDS011;7801;48.124;11.590;2024-02-28T07:02:25;19.10;;;10.77;;
15404;SDS011;7801;48.124;11.590;2024-02-28T07:04:52;15.10;;;10.97;;
15404;SDS011;7801;48.124;11.590;2024-02-28T07:07:19;9.80;;;8.77;;
15404;SDS011;7801;48.124;11.590;2024-02-28T07:09:44;8.67;;;8.07;;
15404;SDS011;7801;48.124;11.590;2024-02-28T07:12:09;13.97;;;10.13;;
15404;SDS011;7801;48.124;11.590;2024-02-28T07:14:35;12.97;;;9.83;;
15404;SDS011;7801;48.124;11.590;2024-02-28T07:17:02;10.77;;;9.77;;
15404;SDS011;7801;48.124;11.590;2024-02-28T07:19:30;9.60;;;8.77;;
15404;SDS011;7801;48.124;11.590;2024-02-28T07:21:55;12.60;;;10.83;;
15404;SDS011;7801;48.124;11.590;2024-02-28T07:24:20;11.83;;;10.37;;
15404;SDS011;7801;48.124;11.590;2024-02-28T07:26:47;9.90;;;8.90;;
15404;SDS011;7801;48.124;11.590;2024-02-28T07:29:17;11.47;;;10.23;;
15404;SDS011;7801;48.124;11.590;2024-02-28T07:31:46;12.20;;;8.63;;
15404;SDS011;7801;48.124;11.590;2024-02-28T07:34:13;13.03;;;11.60;;
15404;SDS011;7801;48.124;11.590;2024-02-28T07:36:40;11.60;;;10.07;;
15404;SDS011;7801;48.124;11.590;2024-02-28T07:39:07;15.70;;;4.03;;
15404;SDS011;7801;48.124;11.590;2024-02-28T07:41:38;19.00;;;6.70;;
15404;SDS011;7801;48.124;11.590;2024-02-28T07:44:07;8.30;;;7.67;;
15404;SDS011;7801;48.124;11.590;2024-02-28T07:46:33;10.30;;;9.30;;
15404;SDS011;7801;48.124;11.590;2024-02-28T07:48:59;7.37;;;6.63;;
15404;SDS011;7801;48.124;11.590;2024-02-28T07:51:25;13.80;;;9.90;;
15404;SDS011;7801;48.124;11.590;2024-02-28T07:53:54;11.43;;;9.47;;
15404;SDS011;7801;48.124;11.590;2024-02-28T07:56:20;9.60;;;7.27;;
15404;SDS011;7801;48.124;11.590;2024-02-28T07:58:47;7.47;;;6.87;;
15404;SDS011;7801;48.124;11.590;2024-02-28T08:01:13;8.67;;;7.67;;
15404;SDS011;7801;48.124;11.590;2024-02-28T08:03:38;9.83;;;8.93;;
15404;SDS011;7801;48.124;11.590;2024-02-28T08:06:04;9.47;;;8.57;;
15404;SDS011;7801;48.124;11.590;2024-02-28T08:08:30;9.17;;;8.33;;
15404;SDS011;7801;48.124;11.590;2024-02-28T08:10:55;12.53;;;9.33;;
15404;SDS011;7801;48.124;11.590;2024-02-28T08:13:21;8.63;;;6.97;;
15404;SDS011;7801;48.124;11.590;2024-02-28T08:15:47;11.20;;;10.07;;
15404;SDS011;7801;48.124;11.590;2024-02-28T08:18:16;9.20;;;8.40;;
15404;SDS011;7801;48.124;11.590;2024-02-28T08:20:46;10.33;;;9.07;;
15404;SDS011;7801;48.124;11.590;2024-02-28T08:23:14;8.80;;;8.13;;
15404;SDS011;7801;48.124;11.590;2024-02-28T08:25:40;9.80;;;7.43;;
15404;SDS011;7801;48.124;11.590;2024-02-28T08:28:05;8.03;;;7.40;;
15404;SDS011;7801;48.124;11.590;2024-02-28T08:30:33;13.77;;;9.80;;
15404;SDS011;7801;48.124;11.590;2024-02-28T08:32:59;8.97;;;8.10;;
15404;SDS011;7801;48.124;11.590;2024-02-28T08:35:25;9.10;;;8.27;;
15404;SDS011;7801;48.124;11.590;2024-02-28T08:37:51;9.40;;;8.60;;
15404;SDS011;7801;48.124;11.590;2024-02-28T08:40:21;10.87;;;8.30;;
15404;SDS011;7801;48.124;11.590;2024-02-28T08:42:47;9.40;;;8.10;;
15404;SDS011;7801;48.124;11.590;2024-02-28T08:45:15;9.93;;;8.80;;
15404;SDS011;7801;48.124;11.590;2024-02-28T08:47:40;11.57;;;10.37;;
15404;SDS011;7801;48.124;11.590;2024-02-28T08:50:08;10.13;;;9.17;;
15404;SDS011;7801;48.124;11.590;2024-02-28T08:52:36;9.30;;;8.50;;
15404;SDS011;7801;48.124;11.590;2024-02-28T08:55:02;9.77;;;8.83;;
15404;SDS011;7801;48.124;11.590;2024-02-28T08:57:29;7.47;;;6.87;;
15404;SDS011;7801;48.124;11.590;2024-02-28T08:59:57;10.13;;;9.23;;
15404;SDS011;7801;48.124;11.590;2024-02-28T09:02:23;8.90;;;8.13;;
15404;SDS011;7801;48.124;11.590;2024-02-28T09:04:49;9.10;;;8.03;;
15404;SDS011;7801;48.124;11.590;2024-02-28T09:07:17;15.53;;;10.60;;
15404;SDS011;7801;48.124;11.590;2024-02-28T09:09:45;9.27;;;8.43;;
15404;SDS011;7801;48.124;11.590;2024-02-28T09:12:11;12.90;;;10.23;;
15404;SDS011;7801;48.124;11.590;2024-02-28T09:14:37;11.33;;;10.23;;
15404;SDS011;7801;48.124;11.590;2024-02-28T09:17:02;9.70;;;8.80;;
15404;SDS011;7801;48.124;11.590;2024-02-28T09:19:32;11.30;;;9.77;;
15404;SDS011;7801;48.124;11.590;2024-02-28T09:21:58;12.47;;;11.17;;
15404;SDS011;7801;48.124;11.590;2024-02-28T09:24:26;12.93;;;11.67;;
15404;SDS011;7801;48.124;11.590;2024-02-28T09:26:52;14.73;;;11.87;;
15404;SDS011;7801;48.124;11.590;2024-02-28T09:29:21;18.30;;;11.33;;
15404;SDS011;7801;48.124;11.590;2024-02-28T09:31:47;19.40;;;12.47;;
15404;SDS011;7801;48.124;11.590;2024-02-28T09:34:14;12.03;;;10.63;;
15404;SDS011;7801;48.124;11.590;2024-02-28T09:36:40;12.27;;;10.90;;
15404;SDS011;7801;48.124;11.590;2024-02-28T09:39:08;21.67;;;13.40;;
15404;SDS011;7801;48.124;11.590;2024-02-28T09:41:35;12.47;;;11.27;;
15404;SDS011;7801;48.124;11.590;2024-02-28T09:44:02;10.90;;;10.03;;
15404;SDS011;7801;48.124;11.590;2024-02-28T09:46:29;12.27;;;11.00;;
15404;SDS011;7801;48.124;11.590;2024-02-28T09:48:56;12.47;;;10.37;;
15404;SDS011;7801;48.124;11.590;2024-02-28T09:51:23;12.40;;;9.97;;
15404;SDS011;7801;48.124;11.590;2024-02-28T09:53:51;12.43;;;10.47;;
15404;SDS011;7801;48.124;11.590;2024-02-28T09:56:19;23.73;;;11.13;;
15404;SDS011;7801;48.124;11.590;2024-02-28T09:59:02;12.47;;;10.73;;
15404;SDS011;7801;48.124;11.590;2024-02-28T10:01:30;13.17;;;10.87;;
15404;SDS011;7801;48.124;11.590;2024-02-28T10:03:56;14.47;;;10.40;;
15404;SDS011;7801;48.124;11.590;2024-02-28T10:06:22;11.37;;;10.40;;
15404;SDS011;7801;48.124;11.590;2024-02-28T10:08:48;10.27;;;9.47;;
15404;SDS011;7801;48.124;11.590;2024-02-28T10:11:19;12.40;;;10.50;;
15404;SDS011;7801;48.124;11.590;2024-02-28T10:13:49;14.47;;;10.83;;
15404;SDS011;7801;48.124;11.590;2024-02-28T10:16:16;12.17;;;10.87;;
15404;SDS011;7801;48.124;11.590;2024-02-28T10:18:42;14.13;;;11.77;;
15404;SDS011;7801;48.124;11.590;2024-02-28T10:21:10;12.70;;;10.27;;
15404;SDS011;7801;48.124;11.590;2024-02-28T10:23:38;10.23;;;9.23;;
15404;SDS011;7801;48.124;11.590;2024-02-28T10:26:05;13.53;;;10.07;;
15404;SDS011;7801;48.124;11.590;2024-02-28T10:28:39;9.03;;;8.13;;
15404;SDS011;7801;48.124;11.590;2024-02-28T10:31:09;10.40;;;9.57;;
15404;SDS011;7801;48.124;11.590;2024-02-28T10:33:37;11.60;;;10.53;;
15404;SDS011;7801;48.124;11.590;2024-02-28T10:36:07;10.77;;;9.57;;
15404;SDS011;7801;48.124;11.590;2024-02-28T10:38:34;17.57;;;12.17;;
15404;SDS011;7801;48.124;11.590;2024-02-28T10:41:05;13.63;;;9.37;;
15404;SDS011;7801;48.124;11.590;2024-02-28T10:43:32;16.70;;;10.13;;
15404;SDS011;7801;48.124;11.590;2024-02-28T10:45:59;12.27;;;9.93;;
15404;SDS011;7801;48.124;11.590;2024-02-28T10:48:26;13.53;;;9.80;;
15404;SDS011;7801;48.124;11.590;2024-02-28T10:50:52;12.73;;;8.77;;
15404;SDS011;7801;48.124;11.590;2024-02-28T10:53:22;10.67;;;9.63;;
15404;SDS011;7801;48.124;11.590;2024-02-28T10:55:58;12.67;;;9.87;;
15404;SDS011;7801;48.124;11.590;2024-02-28T10:58:29;11.20;;;9.23;;
15404;SDS011;7801;48.124;11.590;2024-02-28T11:01:00;10.83;;;8.97;;
15404;SDS011;7801;48.124;11.590;2024-02-28T11:03:28;9.57;;;8.57;;
15404;SDS011;7801;48.124;11.590;2024-02-28T11:05:55;9.80;;;8.83;;
15404;SDS011;7801;48.124;11.590;2024-02-28T11:08:21;12.17;;;9.90;;
15404;SDS011;7801;48.124;11.590;2024-02-28T11:10:56;11.23;;;9.83;;
15404;SDS011;7801;48.124;11.590;2024-02-28T11:13:33;13.40;;;11.03;;
15404;SDS011;7801;48.124;11.590;2024-02-28T11:16:07;16.50;;;9.93;;
15404;SDS011;7801;48.124;11.590;2024-02-28T11:18:34;10.13;;;9.10;;
15404;SDS011;7801;48.124;11.590;2024-02-28T11:21:14;11.97;;;10.83;;
15404;SDS011;7801;48.124;11.590;2024-02-28T11:23:46;11.93;;;10.03;;
15404;SDS011;7801;48.124;11.590;2024-02-28T11:26:15;12.47;;;9.93;;
15404;SDS011;7801;48.124;11.590;2024-02-28T11:28:42;9.80;;;8.80;;
15404;SDS011;7801;48.124;11.590;2024-02-28T11:31:09;9.60;;;8.80;;
15404;SDS011;7801;48.124;11.590;2024-02-28T11:33:37;11.40;;;9.83;;
15404;SDS011;7801;48.124;11.590;2024-02-28T11:36:03;11.80;;;9.50;;
15404;SDS011;7801;48.124;11.590;2024-02-28T11:38:30;13.33;;;11.63;;
15404;SDS011;7801;48.124;11.590;2024-02-28T11:40:56;18.30;;;11.90;;
15404;SDS011;7801;48.124;11.590;2024-02-28T11:43:25;11.20;;;9.27;;
15404;SDS011;7801;48.124;11.590;2024-02-28T11:45:53;10.60;;;9.53;;
15404;SDS011;7801;48.124;11.590;2024-02-28T11:48:20;11.80;;;10.57;;
15404;SDS011;7801;48.124;11.590;2024-02-28T11:50:45;10.00;;;9.17;;
15404;SDS011;7801;48.124;11.590;2024-02-28T11:53:12;9.37;;;8.57;;
15404;SDS011;7801;48.124;11.590;2024-02-28T11:55:50;10.80;;;9.70;;
15404;SDS011;7801;48.124;11.590;2024-02-28T11:58:17;12.73;;;10.33;;
15404;SDS011;7801;48.124;11.590;2024-02-28T12:00:49;4.97;;;4.67;;
15404;SDS011;7801;48.124;11.590;2024-02-28T12:03:25;6.33;;;5.87;;
15404;SDS011;7801;48.124;11.590;2024-02-28T12:05:54;7.80;;;5.47;;
15404;SDS011;7801;48.124;11.590;2024-02-28T12:08:21;8.37;;;7.57;;
15404;SDS011;7801;48.124;11.590;2024-02-28T12:10:51;7.83;;;7.07;;
15404;SDS011;7801;48.124;11.590;2024-02-28T12:13:22;11.13;;;5.73;;
15404;SDS011;7801;48.124;11.590;2024-02-28T12:15:49;11.27;;;7.37;;
15404;SDS011;7801;48.124;11.590;2024-02-28T12:18:17;6.97;;;6.33;;
15404;SDS011;7801;48.124;11.590;2024-02-28T12:20:46;6.97;;;6.37;;
15404;SDS011;7801;48.124;11.590;2024-02-28T12:23:15;6.07;;;5.60;;
15404;SDS011;7801;48.124;11.590;2024-02-28T12:25:44;6.17;;;5.57;;
15404;SDS011;7801;48.124;11.590;2024-02-28T12:28:11;5.87;;;5.43;;
15404;SDS011;7801;48.124;11.590;2024-02-28T12:30:41;5.10;;;4.70;;
15404;SDS011;7801;48.124;11.590;2024-02-28T12:33:08;4.33;;;4.03;;
15404;SDS011;7801;48.124;11.590;2024-02-28T12:35:37;6.23;;;5.80;;
15404;SDS011;7801;48.124;11.590;2024-02-28T12:38:05;5.80;;;4.73;;
15404;SDS011;7801;48.124;11.590;2024-02-28T12:40:32;5.67;;;4.80;;
15404;SDS011;7801;48.124;11.590;2024-02-28T12:42:59;5.57;;;5.17;;
15404;SDS011;7801;48.124;11.590;2024-02-28T12:45:25;6.93;;;6.33;;
15404;SDS011;7801;48.124;11.590;2024-02-28T12:47:51;6.97;;;5.93;;
15404;SDS011;7801;48.124;11.590;2024-02-28T12:50:23;5.90;;;5.43;;
15404;SDS011;7801;48.124;11.590;2024-02-28T12:52:50;7.43;;;6.80;;
15404;SDS011;7801;48.124;11.590;2024-02-28T12:55:18;7.77;;;7.27;;
15404;SDS011;7801;48.124;11.590;2024-02-28T12:57:44;7.63;;;6.93;;
15404;SDS011;7801;48.124;11.590;2024-02-28T13:00:11;8.47;;;7.67;;
15404;SDS011;7801;48.124;11.590;2024-02-28T13:02:38;10.37;;;8.57;;
15404;SDS011;7801;48.124;11.590;2024-02-28T13:05:04;7.37;;;6.80;;
15404;SDS011;7801;48.124;11.590;2024-02-28T13:07:31;11.87;;;9.00;;
15404;SDS011;7801;48.124;11.590;2024-02-28T13:09:59;8.30;;;7.50;;
15404;SDS011;7801;48.124;11.590;2024-02-28T13:12:25;11.07;;;9.50;;
15404;SDS011;7801;48.124;11.590;2024-02-28T13:14:53;10.07;;;8.43;;
15404;SDS011;7801;48.124;11.590;2024-02-28T13:17:23;9.77;;;8.87;;
15404;SDS011;7801;48.124;11.590;2024-02-28T13:19:48;8.53;;;7.77;;
15404;SDS011;7801;48.124;11.590;2024-02-28T13:22:14;9.20;;;8.30;;
15404;SDS011;7801;48.124;11.590;2024-02-28T13:24:40;8.53;;;7.83;;
15404;SDS011;7801;48.124;11.590;2024-02-28T13:27:09;10.40;;;8.67;;
15404;SDS011;7801;48.124;11.590;2024-02-28T13:29:39;10.47;;;9.43;;
15404;SDS011;7801;48.124;11.590;2024-02-28T13:32:05;7.17;;;6.67;;
15404;SDS011;7801;48.124;11.590;2024-02-28T13:34:32;11.67;;;8.80;;
15404;SDS011;7801;48.124;11.590;2024-02-28T13:36:58;13.67;;;9.13;;
15404;SDS011;7801;48.124;11.590;2024-02-28T13:39:24;8.67;;;7.97;;
15404;SDS011;7801;48.124;11.590;2024-02-28T13:41:51;9.27;;;8.43;;
15404;SDS011;7801;48.124;11.590;2024-02-28T13:44:18;10.40;;;9.33;;
15404;SDS011;7801;48.124;11.590;2024-02-28T13:46:47;8.67;;;7.87;;
15404;SDS011;7801;48.124;11.590;2024-02-28T13:49:16;9.57;;;8.60;;
15404;SDS011;7801;48.124;11.590;2024-02-28T13:51:44;9.40;;;8.17;;
15404;SDS011;7801;48.124;11.590;2024-02-28T13:54:15;9.03;;;8.07;;
15404;SDS011;7801;48.124;11.590;2024-02-28T13:56:41;10.30;;;9.30;;
15404;SDS011;7801;48.124;11.590;2024-02-28T13:59:08;9.87;;;9.03;;
15404;SDS011;7801;48.124;11.590;2024-02-28T14:01:37;10.77;;;8.63;;
15404;SDS011;7801;48.124;11.590;2024-02-28T14:04:05;13.63;;;9.53;;
15404;SDS011;7801;48.124;11.590;2024-02-28T14:06:31;9.43;;;8.63;;
15404;SDS011;7801;48.124;11.590;2024-02-28T14:08:57;9.60;;;8.70;;
15404;SDS011;7801;48.124;11.590;2024-02-28T14:11:22;7.43;;;6.80;;
15404;SDS011;7801;48.124;11.590;2024-02-28T14:13:49;8.80;;;8.03;;
15404;SDS011;7801;48.124;11.590;2024-02-28T14:16:17;9.60;;;8.80;;
15404;SDS011;7801;48.124;11.590;2024-02-28T14:18:47;10.40;;;8.83;;
15404;SDS011;7801;48.124;11.590;2024-02-28T14:21:18;10.97;;;9.87;;
15404;SDS011;7801;48.124;11.590;2024-02-28T14:23:45;9.20;;;8.30;;
15404;SDS011;7801;48.124;11.590;2024-02-28T14:26:15;11.73;;;10.03;;
15404;SDS011;7801;48.124;11.590;2024-02-28T14:28:41;10.97;;;9.20;;
15404;SDS011;7801;48.124;11.590;2024-02-28T14:31:10;8.90;;;8.13;;
15404;SDS011;7801;48.124;11.590;2024-02-28T14:33:37;10.30;;;8.73;;
15404;SDS011;7801;48.124;11.590;2024-02-28T14:36:05;10.07;;;9.13;;
15404;SDS011;7801;48.124;11.590;2024-02-28T14:38:34;12.97;;;11.67;;
15404;SDS011;7801;48.124;11.590;2024-02-28T14:41:01;9.40;;;8.60;;